Preston, Kentucky
Current Conditions -  °F | °C
As of 9:10 PM on Monday 22 Dec 2014 (Local Time) from KSYM Reporting Station
Broken Clouds Broken Clouds  
Wind Chill: 52°   Ceiling: 11000
Heat Index: 52°   Visibility: 10mi
Dew Point: 41°   Wind: 5mph
Humidity: 67%   Direction: 120°ESE
Pressure: 29.81"   Gusts: 14mph
Location:  38.09°N, 83.75°W
Report Text: KSYM 230210Z AUTO 12004G12KT 10SM FEW070 BKN110 11/05 A2981 RMK AO2
Loading
Personal Weather Stations






























Interactive Weather Map New forecast layout! Learn more

10-Day Weather Forecast

Advertisements
Track Severe Weather on mobile